createdAt,value
2022-12-13T00:01:27.196Z,37.63
2022-12-13T00:03:55.583Z,37.92
2022-12-13T00:06:22.553Z,43.50
2022-12-13T00:08:49.654Z,34.80
2022-12-13T00:11:16.865Z,39.15
2022-12-13T00:13:44.530Z,39.75
2022-12-13T00:16:14.082Z,38.17
2022-12-13T00:18:41.060Z,38.45
2022-12-13T00:21:12.849Z,36.90
2022-12-13T00:23:39.753Z,47.35
2022-12-13T00:26:10.472Z,43.58
2022-12-13T00:28:37.675Z,42.30
2022-12-13T00:31:43.071Z,45.88
2022-12-13T00:33:52.188Z,44.28
2022-12-13T00:36:19.509Z,37.55
2022-12-13T00:38:46.471Z,46.75
2022-12-13T00:41:18.463Z,36.20
2022-12-13T00:43:46.219Z,39.55
2022-12-13T00:46:21.340Z,39.20
2022-12-13T00:48:52.274Z,41.30
2022-12-13T00:51:19.947Z,42.35
2022-12-13T00:53:48.361Z,42.63
2022-12-13T00:56:19.538Z,42.08
2022-12-13T00:58:51.652Z,46.65
2022-12-13T01:01:21.817Z,45.67
2022-12-13T01:03:49.742Z,44.20
2022-12-13T01:06:22.482Z,35.03
2022-12-13T01:08:49.693Z,38.58
2022-12-13T01:11:17.442Z,43.63
2022-12-13T01:13:44.614Z,42.00
2022-12-13T01:16:13.545Z,43.53
2022-12-13T01:18:41.425Z,41.20
2022-12-13T01:21:16.871Z,38.05
2022-12-13T01:23:44.644Z,36.08
2022-12-13T01:26:16.885Z,35.55
2022-12-13T01:28:44.364Z,38.50
2022-12-13T01:31:14.704Z,33.10
2022-12-13T01:33:42.143Z,40.20
2022-12-13T01:36:12.941Z,36.20
2022-12-13T01:38:42.310Z,38.55
2022-12-13T01:41:17.815Z,40.93
2022-12-13T01:43:48.147Z,37.83
2022-12-13T01:46:16.858Z,45.97
2022-12-13T01:48:55.705Z,38.55
2022-12-13T01:51:29.137Z,41.63
2022-12-13T01:53:58.245Z,44.97
2022-12-13T01:56:31.313Z,41.47
2022-12-13T01:58:59.980Z,39.75
2022-12-13T02:01:28.283Z,40.50
2022-12-13T02:03:55.348Z,40.75
2022-12-13T02:06:35.185Z,35.80
2022-12-13T02:09:04.483Z,37.35
2022-12-13T02:11:32.058Z,35.22
2022-12-13T02:13:58.861Z,41.17
2022-12-13T02:16:54.907Z,42.22
2022-12-13T02:19:43.390Z,36.23
2022-12-13T02:22:22.181Z,40.42
2022-12-13T02:25:08.479Z,43.17
2022-12-13T02:28:31.187Z,38.75
2022-12-13T02:30:57.331Z,45.40
2022-12-13T02:33:46.556Z,37.03
2022-12-13T02:36:26.338Z,39.75
2022-12-13T02:39:30.179Z,39.95
2022-12-13T02:42:02.269Z,39.28
2022-12-13T02:44:37.625Z,37.25
2022-12-13T02:47:22.464Z,36.63
2022-12-13T02:49:54.087Z,36.28
2022-12-13T02:52:25.374Z,42.15
2022-12-13T02:54:54.991Z,38.92
2022-12-13T02:57:34.039Z,40.60
2022-12-13T03:00:15.587Z,40.03
2022-12-13T03:02:52.479Z,41.80
2022-12-13T03:05:47.781Z,39.15
2022-12-13T03:08:56.136Z,40.00
2022-12-13T03:11:25.740Z,43.65
2022-12-13T03:14:05.083Z,41.75
2022-12-13T03:16:36.493Z,47.15
2022-12-13T03:19:06.993Z,42.47
2022-12-13T03:21:49.180Z,41.30
2022-12-13T03:24:21.132Z,44.85
2022-12-13T03:26:49.865Z,42.40
2022-12-13T03:29:23.928Z,42.05
2022-12-13T03:31:52.422Z,41.57
2022-12-13T03:34:23.041Z,36.95
2022-12-13T03:36:54.170Z,40.33
2022-12-13T03:39:22.098Z,41.50
2022-12-13T03:41:49.844Z,38.33
2022-12-13T03:44:16.923Z,43.08
2022-12-13T03:46:44.615Z,43.90
2022-12-13T03:49:16.846Z,48.28
2022-12-13T03:51:44.431Z,47.22
2022-12-13T03:54:11.336Z,46.03
2022-12-13T03:56:38.114Z,45.95
2022-12-13T03:59:05.571Z,42.28
2022-12-13T04:01:32.450Z,50.13
2022-12-13T04:03:59.385Z,45.97
2022-12-13T04:06:31.264Z,51.88
2022-12-13T04:09:00.974Z,53.40
2022-12-13T04:11:46.083Z,53.45
2022-12-13T04:14:21.574Z,53.30
2022-12-13T04:16:49.070Z,56.75
2022-12-13T04:19:16.111Z,58.50
2022-12-13T04:21:50.614Z,53.55
2022-12-13T04:24:17.536Z,52.42
2022-12-13T04:26:44.366Z,45.83
2022-12-13T04:29:12.944Z,54.87
2022-12-13T04:31:40.794Z,52.45
2022-12-13T04:34:07.752Z,49.50
2022-12-13T04:36:34.734Z,47.55
2022-12-13T04:39:21.940Z,50.13
2022-12-13T04:41:50.563Z,55.47
2022-12-13T04:44:29.051Z,54.20
2022-12-13T04:47:01.269Z,50.00
2022-12-13T04:49:30.044Z,57.35
2022-12-13T04:52:01.154Z,54.57
2022-12-13T04:54:36.075Z,54.90
2022-12-13T04:57:07.278Z,49.87
2022-12-13T04:59:34.312Z,56.35
2022-12-13T05:02:01.179Z,51.80
2022-12-13T05:04:32.654Z,55.78
2022-12-13T05:07:00.625Z,55.93
2022-12-13T05:09:27.519Z,59.03
2022-12-13T05:12:01.683Z,57.88
2022-12-13T05:14:31.441Z,59.90
2022-12-13T05:16:59.709Z,53.88
2022-12-13T05:19:31.262Z,53.05
2022-12-13T05:22:01.564Z,53.38
2022-12-13T05:24:32.311Z,54.38
2022-12-13T05:26:59.873Z,55.50
2022-12-13T05:30:05.597Z,53.20
2022-12-13T05:32:43.612Z,52.00
2022-12-13T05:35:22.208Z,53.00
2022-12-13T05:37:54.049Z,51.22
2022-12-13T05:40:26.893Z,55.33
2022-12-13T05:43:01.579Z,52.45
2022-12-13T05:45:30.438Z,49.75
2022-12-13T05:47:57.546Z,52.83
2022-12-13T05:50:29.372Z,69.97
2022-12-13T05:52:56.320Z,48.08
2022-12-13T05:55:23.153Z,52.42
2022-12-13T05:57:50.993Z,50.67
2022-12-13T06:00:29.772Z,49.75
2022-12-13T06:03:01.042Z,43.88
2022-12-13T06:05:29.675Z,46.50
2022-12-13T06:07:57.868Z,49.20
2022-12-13T06:10:34.958Z,51.13
2022-12-13T06:13:21.065Z,50.83
2022-12-13T06:15:51.557Z,48.80
2022-12-13T06:18:18.612Z,53.67
2022-12-13T06:20:46.527Z,53.38
2022-12-13T06:23:13.733Z,49.75
2022-12-13T06:25:40.823Z,49.17
2022-12-13T06:28:07.666Z,44.13
2022-12-13T06:30:34.580Z,42.55
2022-12-13T06:33:01.486Z,45.15
2022-12-13T06:35:30.408Z,49.42
2022-12-13T06:38:01.226Z,41.38
2022-12-13T06:40:31.669Z,39.17
2022-12-13T06:42:58.570Z,41.90
2022-12-13T06:45:26.390Z,43.95
2022-12-13T06:47:53.397Z,43.53
2022-12-13T06:50:20.302Z,45.70
2022-12-13T06:52:47.502Z,41.95
2022-12-13T06:55:15.076Z,48.97
2022-12-13T06:57:51.963Z,45.95
2022-12-13T07:00:21.627Z,47.20
2022-12-13T07:02:56.830Z,46.80
2022-12-13T07:05:25.095Z,45.42
2022-12-13T07:07:52.006Z,46.40
2022-12-13T07:10:22.022Z,46.95
2022-12-13T07:12:51.481Z,47.00
2022-12-13T07:15:18.382Z,44.28
2022-12-13T07:17:48.687Z,44.05
2022-12-13T07:20:54.174Z,46.25
2022-12-13T07:23:24.477Z,37.63
2022-12-13T07:25:55.014Z,40.42
2022-12-13T07:28:22.130Z,43.10
2022-12-13T07:30:51.473Z,45.57
2022-12-13T07:33:21.946Z,41.13
2022-12-13T07:35:55.416Z,44.85
2022-12-13T07:38:22.575Z,45.92
2022-12-13T07:40:49.502Z,39.45
2022-12-13T07:43:16.758Z,42.00
2022-12-13T07:45:43.937Z,46.77
2022-12-13T07:48:10.798Z,42.58
2022-12-13T07:50:38.130Z,40.67
2022-12-13T07:53:07.884Z,48.88
2022-12-13T07:55:35.538Z,45.78
2022-12-13T07:58:15.274Z,40.72
2022-12-13T08:00:46.201Z,42.85
2022-12-13T08:03:25.527Z,39.65
2022-12-13T08:06:11.358Z,41.85
2022-12-13T08:09:16.024Z,43.80
2022-12-13T08:11:42.927Z,43.65
2022-12-13T08:14:10.000Z,40.97
2022-12-13T08:16:57.870Z,43.05
2022-12-13T08:19:24.776Z,45.70
2022-12-13T08:22:29.234Z,52.88
2022-12-13T08:25:03.569Z,44.58
2022-12-13T08:27:30.723Z,45.85
2022-12-13T08:29:57.638Z,46.90
2022-12-13T08:32:25.394Z,44.75
2022-12-13T08:34:53.417Z,44.83
2022-12-13T08:37:20.318Z,49.85
2022-12-13T08:39:48.853Z,43.63
2022-12-13T08:42:20.124Z,44.03
2022-12-13T08:44:50.058Z,41.30
2022-12-13T08:47:22.706Z,41.03
2022-12-13T08:50:01.506Z,40.28
2022-12-13T08:52:38.983Z,38.03
2022-12-13T08:55:12.556Z,44.47
2022-12-13T08:57:40.901Z,42.50
2022-12-13T09:00:11.623Z,46.03
2022-12-13T09:02:39.171Z,44.28
2022-12-13T09:05:08.185Z,44.95
2022-12-13T09:07:36.913Z,42.93
2022-12-13T09:10:25.883Z,40.78
2022-12-13T09:13:01.021Z,50.13
2022-12-13T09:15:34.588Z,45.70
2022-12-13T09:18:04.243Z,49.72
2022-12-13T09:20:32.666Z,47.78
2022-12-13T09:23:14.200Z,45.67
2022-12-13T09:25:55.899Z,50.40
2022-12-13T09:28:23.169Z,48.85
2022-12-13T09:30:50.307Z,48.47
2022-12-13T09:33:28.161Z,46.30
2022-12-13T09:35:57.337Z,49.58
2022-12-13T09:38:26.472Z,50.80
2022-12-13T09:40:58.411Z,51.15
2022-12-13T09:43:32.781Z,43.03
2022-12-13T09:46:13.395Z,50.67
2022-12-13T09:49:01.835Z,52.22
2022-12-13T09:51:41.448Z,50.50
2022-12-13T09:54:16.741Z,49.47
2022-12-13T09:56:43.579Z,46.80
2022-12-13T09:59:14.476Z,55.30
2022-12-13T10:01:41.999Z,50.85
2022-12-13T10:04:15.301Z,49.78
2022-12-13T10:06:42.256Z,58.22
2022-12-13T10:09:12.773Z,53.58
2022-12-13T10:11:50.856Z,55.20
2022-12-13T10:14:36.540Z,55.92
2022-12-13T10:17:08.414Z,53.42
2022-12-13T10:19:47.411Z,58.70
2022-12-13T10:22:16.668Z,55.80
2022-12-13T10:25:03.703Z,57.10
2022-12-13T10:27:38.294Z,57.97
2022-12-13T10:30:07.326Z,59.75
2022-12-13T10:32:49.971Z,56.17
2022-12-13T10:35:26.881Z,53.03
2022-12-13T10:37:55.602Z,55.97
2022-12-13T10:40:32.131Z,51.33
2022-12-13T10:43:18.030Z,52.38
2022-12-13T10:45:58.958Z,55.55
2022-12-13T10:48:39.953Z,50.03
2022-12-13T10:51:11.086Z,52.75
2022-12-13T10:53:57.196Z,57.67
2022-12-13T10:56:36.073Z,62.67
2022-12-13T10:59:22.991Z,56.45
2022-12-13T11:01:50.068Z,51.55
2022-12-13T11:04:33.678Z,51.47
2022-12-13T11:07:23.817Z,53.90
2022-12-13T11:09:52.694Z,53.10
2022-12-13T11:12:27.666Z,50.85
2022-12-13T11:15:01.681Z,48.35
2022-12-13T11:17:31.942Z,49.63
2022-12-13T11:20:02.854Z,48.97
2022-12-13T11:22:34.497Z,49.42
2022-12-13T11:25:15.718Z,52.30
2022-12-13T11:27:50.083Z,47.58
2022-12-13T11:30:26.093Z,46.33
2022-12-13T11:33:00.493Z,39.65
2022-12-13T11:36:09.558Z,46.90
2022-12-13T11:38:58.230Z,31.02
2022-12-13T11:41:40.515Z,45.83
2022-12-13T11:44:27.785Z,42.63
2022-12-13T11:46:58.361Z,43.35
2022-12-13T11:49:38.270Z,42.53
2022-12-13T11:52:30.031Z,44.70
2022-12-13T11:55:12.054Z,42.20
2022-12-13T11:57:49.305Z,48.05
2022-12-13T12:00:33.925Z,39.83
2022-12-13T12:03:20.429Z,39.75
2022-12-13T12:05:57.410Z,44.38
2022-12-13T12:08:37.722Z,41.92
2022-12-13T12:11:12.432Z,41.30
2022-12-13T12:13:54.766Z,45.35
2022-12-13T12:16:58.250Z,43.33
2022-12-13T12:19:29.666Z,47.03
2022-12-13T12:22:19.013Z,45.97
2022-12-13T12:25:07.573Z,45.53
2022-12-13T12:27:46.731Z,50.10
2022-12-13T12:30:27.985Z,36.00
2022-12-13T12:33:00.391Z,45.63
2022-12-13T12:35:46.292Z,40.22
2022-12-13T12:38:28.774Z,29.55
2022-12-13T12:41:29.339Z,37.30
2022-12-13T12:44:18.395Z,61.15
2022-12-13T12:49:55.637Z,48.53
2022-12-13T12:52:36.010Z,45.42
2022-12-13T12:55:30.510Z,41.58
2022-12-13T12:58:18.587Z,39.53
2022-12-13T13:01:14.839Z,38.80
2022-12-13T13:03:44.316Z,42.28
2022-12-13T13:06:14.198Z,40.00
2022-12-13T13:08:53.203Z,44.03
2022-12-13T13:11:25.163Z,42.17
2022-12-13T13:14:01.552Z,38.88
2022-12-13T13:16:33.002Z,43.47
2022-12-13T13:19:01.419Z,43.58
2022-12-13T13:21:31.251Z,45.90
2022-12-13T13:24:01.251Z,42.20
2022-12-13T13:26:35.869Z,36.30
2022-12-13T13:29:27.610Z,40.80
2022-12-13T13:32:06.336Z,42.92
2022-12-13T13:34:39.354Z,32.92
2022-12-13T13:37:46.259Z,39.33
2022-12-13T13:40:13.067Z,36.47
2022-12-13T13:43:09.693Z,43.55
2022-12-13T13:45:51.932Z,39.70
2022-12-13T13:48:36.853Z,19.67
2022-12-13T13:51:20.949Z,40.85
2022-12-13T13:54:12.985Z,37.47
2022-12-13T13:57:20.230Z,13.13
2022-12-13T13:59:58.062Z,33.63
2022-12-13T14:02:39.895Z,49.00
2022-12-13T14:05:11.150Z,19.27
2022-12-13T14:07:59.277Z,36.65
2022-12-13T14:11:01.734Z,24.27
2022-12-13T14:13:55.909Z,30.80
2022-12-13T14:16:31.732Z,37.42
2022-12-13T14:19:04.879Z,44.75
2022-12-13T14:21:45.758Z,41.67
2022-12-13T14:24:42.868Z,35.72
2022-12-13T14:27:33.834Z,20.92
2022-12-13T14:30:00.902Z,38.55
2022-12-13T14:32:31.067Z,25.23
2022-12-13T14:34:59.577Z,38.92
2022-12-13T14:37:57.494Z,49.65
2022-12-13T14:40:36.660Z,46.88
2022-12-13T14:43:04.090Z,50.65
2022-12-13T14:45:34.034Z,40.13
2022-12-13T14:48:05.823Z,26.60
2022-12-13T14:50:35.527Z,37.92
2022-12-13T14:53:06.370Z,59.92
2022-12-13T14:55:38.419Z,32.47
2022-12-13T14:58:18.791Z,42.53
2022-12-13T15:00:46.084Z,12.52
2022-12-13T15:03:26.123Z,35.25
2022-12-13T15:05:56.832Z,28.10
2022-12-13T15:08:24.132Z,34.08
2022-12-13T15:10:59.656Z,35.88
2022-12-13T15:13:29.414Z,17.00
2022-12-13T15:16:00.722Z,46.47
2022-12-13T15:18:31.208Z,31.63
2022-12-13T15:21:01.326Z,45.53
2022-12-13T15:23:40.388Z,29.63
2022-12-13T15:26:28.947Z,39.33
2022-12-13T15:29:00.762Z,45.95
2022-12-13T15:31:28.692Z,37.22
2022-12-13T15:34:29.731Z,42.97
2022-12-13T15:37:05.476Z,33.45
2022-12-13T15:39:37.916Z,16.00
2022-12-13T15:42:05.011Z,20.23
2022-12-13T15:44:45.818Z,31.05
2022-12-13T15:47:28.157Z,22.73
2022-12-13T15:49:57.434Z,39.23
2022-12-13T15:52:28.889Z,10.98
2022-12-13T15:55:19.842Z,20.23
2022-12-13T15:57:53.647Z,19.17
2022-12-13T16:00:48.466Z,37.22
2022-12-13T16:03:20.721Z,22.92
2022-12-13T16:05:50.098Z,30.90
2022-12-13T16:08:32.567Z,27.88
2022-12-13T16:11:00.161Z,14.52
2022-12-13T16:13:33.079Z,23.42
2022-12-13T16:16:26.930Z,37.60
2022-12-13T16:18:59.594Z,34.97
2022-12-13T16:21:28.247Z,13.77
2022-12-13T16:23:55.153Z,41.88
2022-12-13T16:26:29.449Z,35.10
2022-12-13T16:29:00.281Z,28.48
2022-12-13T16:31:35.813Z,24.50
2022-12-13T16:34:04.301Z,23.17
2022-12-13T16:36:32.013Z,21.30
2022-12-13T16:38:59.202Z,34.88
2022-12-13T16:41:26.228Z,33.58
2022-12-13T16:43:58.644Z,30.80
2022-12-13T16:47:17.243Z,34.60
2022-12-13T16:49:25.551Z,17.52
2022-12-13T16:51:53.208Z,17.77
2022-12-13T16:54:21.910Z,22.70
2022-12-13T16:56:50.490Z,42.85
2022-12-13T16:59:20.262Z,17.08
2022-12-13T17:01:47.396Z,24.83
2022-12-13T17:04:20.708Z,40.97
2022-12-13T17:06:50.190Z,44.22
2022-12-13T17:09:18.143Z,45.50
2022-12-13T17:11:45.374Z,44.38
2022-12-13T17:14:12.329Z,45.05
2022-12-13T17:16:39.361Z,40.72
2022-12-13T17:19:06.525Z,34.42
2022-12-13T17:21:33.409Z,36.55
2022-12-13T17:24:02.816Z,36.85
2022-12-13T17:26:29.785Z,45.45
2022-12-13T17:28:56.681Z,45.53
2022-12-13T17:31:23.655Z,34.42
2022-12-13T17:33:50.520Z,48.00
2022-12-13T17:36:17.450Z,47.83
2022-12-13T17:38:46.180Z,40.50
2022-12-13T17:41:16.920Z,44.38
2022-12-13T17:43:44.671Z,47.15
2022-12-13T17:46:14.542Z,46.38
2022-12-13T17:48:42.444Z,47.47
2022-12-13T17:51:10.546Z,42.97
2022-12-13T17:53:39.996Z,51.28
2022-12-13T17:56:08.968Z,48.88
2022-12-13T17:58:36.056Z,46.13
2022-12-13T18:01:17.481Z,24.42
2022-12-13T18:03:45.188Z,36.83
2022-12-13T18:06:12.371Z,33.75
2022-12-13T18:08:40.446Z,36.05
2022-12-13T18:13:56.233Z,41.33
2022-12-13T18:16:28.936Z,47.67
2022-12-13T18:19:01.133Z,30.60
2022-12-13T18:21:28.035Z,43.45
2022-12-13T18:23:56.154Z,39.40
2022-12-13T18:26:24.502Z,38.90
2022-12-13T18:28:52.085Z,42.05
2022-12-13T18:31:22.532Z,42.65
2022-12-13T18:33:50.897Z,45.22
2022-12-13T18:36:22.402Z,46.13
2022-12-13T18:38:50.438Z,47.10
2022-12-13T18:41:20.190Z,42.22
2022-12-13T18:43:47.763Z,46.47
2022-12-13T18:46:15.679Z,48.90
2022-12-13T18:48:42.784Z,41.40
2022-12-13T18:51:10.549Z,46.53
2022-12-13T18:53:38.996Z,40.20
2022-12-13T18:56:18.313Z,45.78
2022-12-13T18:58:48.277Z,40.47
2022-12-13T19:01:16.549Z,41.90
2022-12-13T19:03:45.234Z,40.50
2022-12-13T19:06:17.851Z,45.05
2022-12-13T19:08:51.561Z,42.78
2022-12-13T19:11:19.255Z,43.40
2022-12-13T19:13:46.695Z,42.60
2022-12-13T19:16:16.017Z,47.77
2022-12-13T19:18:43.060Z,33.83
2022-12-13T19:21:13.874Z,41.05
2022-12-13T19:23:41.137Z,40.22
2022-12-13T19:26:15.024Z,46.83
2022-12-13T19:28:43.397Z,49.33
2022-12-13T19:31:12.420Z,45.80
2022-12-13T19:33:41.705Z,42.22
2022-12-13T19:36:09.889Z,41.45
2022-12-13T19:38:37.961Z,35.72
2022-12-13T19:41:14.451Z,27.05
2022-12-13T19:43:42.010Z,39.65
2022-12-13T19:46:09.816Z,40.13
2022-12-13T19:48:37.657Z,38.90
2022-12-13T19:51:07.848Z,40.67
2022-12-13T19:53:36.090Z,35.73
2022-12-13T19:56:17.529Z,34.70
2022-12-13T19:58:45.979Z,42.22
2022-12-13T20:01:13.363Z,39.20
2022-12-13T20:03:42.748Z,37.25
2022-12-13T20:06:12.899Z,40.03
2022-12-13T20:08:40.738Z,40.53
2022-12-13T20:11:10.214Z,36.55
2022-12-13T20:13:37.598Z,38.78
2022-12-13T20:16:05.478Z,36.33
2022-12-13T20:18:33.584Z,43.28
2022-12-13T20:21:13.469Z,40.00
2022-12-13T20:23:48.897Z,28.00
2022-12-13T20:26:19.509Z,34.47
2022-12-13T20:28:46.964Z,39.33
2022-12-13T20:31:18.132Z,29.83
2022-12-13T20:33:45.302Z,39.42
2022-12-13T20:36:24.230Z,41.78
2022-12-13T20:38:53.028Z,43.57
2022-12-13T20:41:20.429Z,42.20
2022-12-13T20:43:50.460Z,31.85
2022-12-13T20:46:17.409Z,32.67
2022-12-13T20:48:46.387Z,36.60
2022-12-13T20:51:17.218Z,35.63
2022-12-13T20:53:45.705Z,37.25
2022-12-13T20:56:15.448Z,32.22
2022-12-13T20:58:43.091Z,35.20
2022-12-13T21:01:15.773Z,30.02
2022-12-13T21:03:43.063Z,16.00
2022-12-13T21:06:12.991Z,21.30
2022-12-13T21:08:51.728Z,15.95
2022-12-13T21:11:27.656Z,20.80
2022-12-13T21:13:55.996Z,32.72
2022-12-13T21:16:24.635Z,26.27
2022-12-13T21:18:56.622Z,36.83
2022-12-13T21:21:24.857Z,38.22
2022-12-13T21:23:52.072Z,36.92
2022-12-13T21:26:19.327Z,20.13
2022-12-13T21:28:47.499Z,16.88
2022-12-13T21:31:14.418Z,20.38
2022-12-13T21:33:41.417Z,28.10
2022-12-13T21:36:11.961Z,31.53
2022-12-13T21:38:39.113Z,33.72
2022-12-13T21:41:07.626Z,35.28
2022-12-13T21:43:39.199Z,32.80
2022-12-13T21:46:18.072Z,31.10
2022-12-13T21:48:47.377Z,39.00
2022-12-13T21:51:16.782Z,34.50
2022-12-13T21:53:46.001Z,35.43
2022-12-13T21:56:38.101Z,38.53
2022-12-13T21:59:15.668Z,36.40
2022-12-13T22:02:12.714Z,31.53
2022-12-13T22:04:48.339Z,30.50
2022-12-13T22:07:26.725Z,32.83
2022-12-13T22:09:54.485Z,31.20
2022-12-13T22:12:25.701Z,24.70
2022-12-13T22:14:53.538Z,32.17
2022-12-13T22:17:31.254Z,23.42
2022-12-13T22:20:00.850Z,14.20
2022-12-13T22:22:27.844Z,32.67
2022-12-13T22:24:54.765Z,24.55
2022-12-13T22:27:24.417Z,27.55
2022-12-13T22:29:59.673Z,25.52
2022-12-13T22:32:28.804Z,27.87
2022-12-13T22:34:55.776Z,11.85
2022-12-13T22:37:23.415Z,22.33
2022-12-13T22:39:50.321Z,13.50
2022-12-13T22:42:17.178Z,12.43
2022-12-13T22:44:44.079Z,22.13
2022-12-13T22:47:10.940Z,22.55
2022-12-13T22:49:38.072Z,22.27
2022-12-13T22:52:05.309Z,20.60
2022-12-13T22:54:32.204Z,28.60
2022-12-13T22:56:59.258Z,28.03
2022-12-13T22:59:26.177Z,12.43
2022-12-13T23:02:01.410Z,26.10
2022-12-13T23:04:29.653Z,25.70
2022-12-13T23:06:57.046Z,18.63
2022-12-13T23:09:24.010Z,32.33
2022-12-13T23:12:09.148Z,23.80
2022-12-13T23:14:36.058Z,29.88
2022-12-13T23:17:03.359Z,28.95
2022-12-13T23:19:49.473Z,27.38
2022-12-13T23:22:17.957Z,28.95
2022-12-13T23:24:44.827Z,21.50
2022-12-13T23:27:11.652Z,24.98
2022-12-13T23:29:38.622Z,26.17
2022-12-13T23:32:05.443Z,22.88
2022-12-13T23:34:32.609Z,22.08
2022-12-13T23:36:59.424Z,23.67
2022-12-13T23:39:26.357Z,23.05
2022-12-13T23:41:53.171Z,23.55
2022-12-13T23:44:20.014Z,21.50
2022-12-13T23:46:48.751Z,27.80
2022-12-13T23:49:16.695Z,21.77
2022-12-13T23:51:44.571Z,24.30
2022-12-13T23:54:17.744Z,26.42
2022-12-13T23:56:46.712Z,27.80
2022-12-13T23:59:13.573Z,23.15
